Ozawkie, Kansas
Current Conditions -  °F | °C
As of 8:53 AM on Wednesday 26 Nov 2014 (Local Time) from KTOP Reporting Station
Overcast Overcast  
Wind Chill: 35°   Ceiling: 8000
Heat Index: 42°   Visibility: 10mi
Dew Point: 30°   Wind: 14mph
Humidity: 62%   Direction: 300°WNW
Pressure: 30.01"   Gusts: 21mph
Location:  39.23°N, 95.47°W
Report Text: KTOP 261453Z 30012G18KT 10SM OVC080 06/M01 A3001 RMK AO2 SLP165 T00561011 52018
Loading
Personal Weather Stations






























Interactive Weather Map New forecast layout! Learn more

10-Day Weather Forecast

Advertisements
Track Severe Weather on mobile